createdAt,value
2022-09-26T00:00:13.190Z,1.37
2022-09-26T00:02:40.787Z,5.53
2022-09-26T00:05:08.886Z,5.60
2022-09-26T00:07:37.509Z,5.93
2022-09-26T00:10:05.050Z,6.73
2022-09-26T00:12:32.256Z,3.13
2022-09-26T00:14:59.447Z,2.50
2022-09-26T00:17:26.696Z,3.43
2022-09-26T00:19:53.913Z,1.87
2022-09-26T00:22:21.173Z,3.97
2022-09-26T00:24:49.755Z,2.17
2022-09-26T00:30:38.448Z,3.00
2022-09-26T00:33:05.718Z,2.37
2022-09-26T00:35:33.054Z,3.53
2022-09-26T00:38:00.368Z,3.23
2022-09-26T00:40:29.330Z,4.23
2022-09-26T00:42:56.622Z,5.67
2022-09-26T00:45:31.976Z,2.17
2022-09-26T00:48:00.669Z,1.97
2022-09-26T00:50:30.068Z,2.10
2022-09-26T00:52:59.827Z,8.73
2022-09-26T00:55:34.502Z,2.17
2022-09-26T00:58:13.632Z,4.63
2022-09-26T01:00:42.515Z,2.33
2022-09-26T01:03:09.986Z,1.90
2022-09-26T01:05:37.665Z,3.50
2022-09-26T01:08:05.193Z,1.60
2022-09-26T01:10:34.679Z,2.67
2022-09-26T01:13:02.474Z,1.93
2022-09-26T01:15:29.701Z,3.30
2022-09-26T01:17:57.636Z,6.10
2022-09-26T01:20:33.211Z,3.27
2022-09-26T01:23:19.183Z,4.17
2022-09-26T01:26:23.527Z,3.27
2022-09-26T01:29:13.036Z,1.70
2022-09-26T01:31:47.600Z,3.67
2022-09-26T01:34:20.187Z,5.73
2022-09-26T01:36:55.985Z,7.67
2022-09-26T01:39:30.078Z,4.53
2022-09-26T01:42:04.673Z,4.17
2022-09-26T01:44:48.791Z,3.40
2022-09-26T01:47:18.267Z,3.43
2022-09-26T01:49:49.032Z,2.73
2022-09-26T01:52:21.238Z,3.93
2022-09-26T01:54:56.987Z,2.73
2022-09-26T01:57:31.976Z,5.13
2022-09-26T02:00:01.569Z,7.43
2022-09-26T02:02:33.468Z,4.77
2022-09-26T02:05:03.616Z,5.53
2022-09-26T02:07:34.576Z,6.53
2022-09-26T02:10:04.435Z,3.73
2022-09-26T02:12:33.061Z,4.10
2022-09-26T02:15:08.295Z,5.73
2022-09-26T02:17:38.785Z,6.23
2022-09-26T02:20:09.792Z,2.37
2022-09-26T02:22:37.254Z,2.97
2022-09-26T02:25:19.815Z,2.03
2022-09-26T02:28:11.832Z,3.80
2022-09-26T02:30:39.689Z,4.53
2022-09-26T02:33:08.644Z,6.27
2022-09-26T02:35:36.054Z,2.37
2022-09-26T02:38:04.680Z,4.47
2022-09-26T02:40:38.447Z,5.10
2022-09-26T02:43:24.119Z,5.97
2022-09-26T02:45:58.240Z,3.03
2022-09-26T02:48:36.790Z,6.27
2022-09-26T02:51:09.513Z,3.27
2022-09-26T02:53:52.294Z,2.43
2022-09-26T02:56:36.471Z,3.83
2022-09-26T02:59:08.841Z,4.30
2022-09-26T03:01:41.402Z,5.27
2022-09-26T03:04:14.724Z,3.17
2022-09-26T03:06:44.387Z,3.90
2022-09-26T03:09:12.884Z,3.23
2022-09-26T03:11:41.756Z,6.20
2022-09-26T03:14:09.873Z,5.23
2022-09-26T03:16:38.890Z,6.27
2022-09-26T03:19:08.595Z,2.60
2022-09-26T03:21:37.564Z,3.77
2022-09-26T03:24:09.115Z,4.07
2022-09-26T03:26:38.066Z,3.77
2022-09-26T03:29:11.242Z,1.90
2022-09-26T03:31:38.633Z,2.83
2022-09-26T03:34:07.171Z,5.43
2022-09-26T03:36:34.478Z,3.33
2022-09-26T03:39:04.948Z,5.43
2022-09-26T03:41:38.903Z,4.00
2022-09-26T03:44:26.446Z,3.90
2022-09-26T03:47:12.639Z,4.17
2022-09-26T03:49:44.766Z,4.10
2022-09-26T03:52:18.656Z,4.10
2022-09-26T03:54:49.283Z,4.47
2022-09-26T03:57:20.077Z,5.67
2022-09-26T03:59:52.547Z,4.13
2022-09-26T04:02:20.144Z,3.07
2022-09-26T04:04:52.578Z,2.17
2022-09-26T04:07:19.824Z,2.77
2022-09-26T04:09:48.564Z,2.10
2022-09-26T04:12:21.461Z,4.97
2022-09-26T04:14:48.708Z,2.77
2022-09-26T04:17:16.814Z,3.67
2022-09-26T04:19:46.089Z,3.40
2022-09-26T04:22:14.638Z,4.77
2022-09-26T04:25:02.610Z,5.30
2022-09-26T04:27:31.630Z,4.17
2022-09-26T04:29:58.852Z,5.07
2022-09-26T04:32:45.394Z,7.13
2022-09-26T04:35:35.678Z,3.17
2022-09-26T04:38:02.943Z,4.70
2022-09-26T04:40:30.203Z,4.70
2022-09-26T04:43:06.373Z,4.67
2022-09-26T04:45:33.734Z,4.27
2022-09-26T04:48:02.666Z,4.17
2022-09-26T04:50:50.206Z,4.83
2022-09-26T04:53:18.593Z,4.07
2022-09-26T04:56:11.399Z,3.47
2022-09-26T04:58:40.537Z,3.63
2022-09-26T05:01:09.161Z,4.87
2022-09-26T05:03:50.503Z,3.10
2022-09-26T05:06:18.170Z,5.80
2022-09-26T05:08:45.882Z,4.17
2022-09-26T05:11:20.067Z,4.10
2022-09-26T05:13:53.120Z,6.83
2022-09-26T05:16:21.172Z,8.77
2022-09-26T05:18:51.347Z,4.80
2022-09-26T05:21:24.386Z,3.93
2022-09-26T05:23:52.030Z,4.23
2022-09-26T05:26:21.712Z,4.90
2022-09-26T05:28:51.964Z,3.87
2022-09-26T05:31:22.954Z,6.00
2022-09-26T05:33:50.459Z,5.20
2022-09-26T05:36:18.142Z,4.83
2022-09-26T05:38:45.908Z,3.70
2022-09-26T05:41:14.260Z,6.57
2022-09-26T05:43:41.844Z,5.47
2022-09-26T05:46:14.207Z,6.20
2022-09-26T05:48:47.161Z,5.73
2022-09-26T05:51:20.134Z,4.13
2022-09-26T05:53:47.908Z,5.37
2022-09-26T05:56:19.525Z,4.23
2022-09-26T05:59:10.230Z,3.83
2022-09-26T06:01:57.806Z,4.63
2022-09-26T06:04:39.282Z,5.90
2022-09-26T06:07:33.430Z,4.03
2022-09-26T06:10:07.261Z,3.70
2022-09-26T06:12:41.061Z,4.77
2022-09-26T06:15:08.823Z,3.57
2022-09-26T06:17:37.845Z,4.20
2022-09-26T06:20:06.157Z,6.23
2022-09-26T06:22:39.645Z,4.67
2022-09-26T06:25:07.595Z,3.03
2022-09-26T06:27:34.868Z,6.80
2022-09-26T06:30:02.104Z,5.50
2022-09-26T06:32:30.131Z,8.43
2022-09-26T06:35:19.262Z,5.10
2022-09-26T06:38:02.651Z,4.70
2022-09-26T06:40:29.962Z,8.33
2022-09-26T06:42:57.203Z,4.50
2022-09-26T06:45:27.109Z,5.00
2022-09-26T06:48:15.607Z,4.87
2022-09-26T06:50:58.259Z,5.87
2022-09-26T06:53:25.560Z,8.10
2022-09-26T06:55:52.765Z,6.70
2022-09-26T06:58:20.018Z,4.13
2022-09-26T07:01:07.635Z,2.63
2022-09-26T07:03:54.509Z,4.43
2022-09-26T07:06:36.834Z,4.33
2022-09-26T07:09:12.877Z,5.33
2022-09-26T07:12:13.616Z,5.63
2022-09-26T07:14:37.732Z,5.27
2022-09-26T07:17:19.179Z,5.67
2022-09-26T07:20:06.367Z,3.13
2022-09-26T07:22:55.936Z,5.03
2022-09-26T07:28:26.425Z,4.00
2022-09-26T07:30:56.133Z,8.33
2022-09-26T07:33:45.117Z,4.33
2022-09-26T07:36:12.631Z,6.47
2022-09-26T07:38:42.224Z,3.77
2022-09-26T07:41:14.948Z,6.10
2022-09-26T07:47:18.903Z,5.47
2022-09-26T07:49:46.645Z,6.03
2022-09-26T07:52:35.418Z,4.93
2022-09-26T08:05:29.657Z,5.07
2022-09-26T08:07:57.194Z,3.50
2022-09-26T08:10:44.923Z,5.13
2022-09-26T08:13:31.530Z,4.93
2022-09-26T08:16:21.930Z,4.77
2022-09-26T08:18:49.943Z,7.07
2022-09-26T08:21:18.995Z,6.30
2022-09-26T08:23:46.763Z,3.33
2022-09-26T08:26:32.052Z,4.93
2022-09-26T08:29:04.800Z,6.90
2022-09-26T08:31:47.593Z,5.10
2022-09-26T08:37:53.207Z,4.43
2022-09-26T08:40:56.441Z,5.30
2022-09-26T08:43:48.212Z,7.20
2022-09-26T08:46:22.011Z,6.13
2022-09-26T08:49:34.723Z,8.73
2022-09-26T08:52:05.799Z,10.30
2022-09-26T08:54:36.851Z,3.30
2022-09-26T08:57:06.433Z,6.37
2022-09-26T08:59:36.215Z,5.17
2022-09-26T09:02:10.506Z,6.17
2022-09-26T09:04:53.943Z,6.07
2022-09-26T09:07:23.615Z,4.37
2022-09-26T09:09:52.916Z,9.20
2022-09-26T09:12:34.654Z,6.40
2022-09-26T09:15:27.540Z,2.93
2022-09-26T09:18:13.737Z,6.13
2022-09-26T09:21:02.755Z,3.33
2022-09-26T09:23:56.445Z,6.57
2022-09-26T09:29:30.397Z,4.97
2022-09-26T09:32:18.461Z,5.80
2022-09-26T09:34:58.764Z,6.30
2022-09-26T09:37:47.225Z,11.53
2022-09-26T09:40:27.240Z,4.60
2022-09-26T09:43:02.387Z,4.63
2022-09-26T09:45:31.404Z,2.53
2022-09-26T09:47:58.850Z,2.67
2022-09-26T09:50:30.237Z,2.23
2022-09-26T09:52:59.564Z,3.13
2022-09-26T09:55:35.915Z,5.57
2022-09-26T09:58:27.122Z,4.10
2022-09-26T10:01:01.140Z,2.00
2022-09-26T10:03:38.129Z,3.10
2022-09-26T10:06:06.578Z,2.17
2022-09-26T10:08:41.156Z,1.87
2022-09-26T10:11:28.406Z,1.60
2022-09-26T10:14:00.500Z,2.50
2022-09-26T10:17:09.160Z,2.10
2022-09-26T10:19:43.856Z,2.30
2022-09-26T10:22:15.161Z,1.80
2022-09-26T10:24:42.496Z,3.30
2022-09-26T10:27:16.565Z,3.00
2022-09-26T10:29:45.477Z,2.37
2022-09-26T10:32:13.006Z,2.20
2022-09-26T10:35:02.740Z,4.30
2022-09-26T10:37:30.872Z,2.00
2022-09-26T10:40:21.757Z,2.10
2022-09-26T10:43:06.474Z,1.87
2022-09-26T10:45:35.718Z,2.13
2022-09-26T10:48:22.749Z,2.30
2022-09-26T10:51:27.844Z,2.47
2022-09-26T10:54:03.503Z,1.70
2022-09-26T10:56:32.695Z,2.80
2022-09-26T10:59:02.076Z,1.83
2022-09-26T11:01:31.520Z,1.80
2022-09-26T11:04:00.792Z,1.97
2022-09-26T11:06:44.592Z,2.10
2022-09-26T11:09:28.268Z,1.77
2022-09-26T11:11:58.415Z,3.27
2022-09-26T11:14:31.212Z,3.27
2022-09-26T11:17:02.337Z,2.53
2022-09-26T11:19:35.183Z,1.87
2022-09-26T11:22:08.344Z,2.70
2022-09-26T11:24:45.244Z,12.23
2022-09-26T11:27:18.691Z,3.70
2022-09-26T11:29:49.692Z,2.17
2022-09-26T11:32:24.119Z,1.50
2022-09-26T11:34:59.382Z,1.53
2022-09-26T11:37:35.467Z,1.60
2022-09-26T11:40:24.131Z,2.00
2022-09-26T11:43:05.960Z,1.97
2022-09-26T11:45:40.919Z,1.70
2022-09-26T11:48:51.595Z,1.90
2022-09-26T11:52:04.419Z,1.40
2022-09-26T11:54:51.903Z,2.43
2022-09-26T11:57:29.019Z,2.53
2022-09-26T12:00:16.331Z,3.70
2022-09-26T12:02:56.644Z,3.23
2022-09-26T12:05:27.853Z,2.47
2022-09-26T12:08:00.327Z,2.70
2022-09-26T12:10:33.790Z,2.70
2022-09-26T12:13:17.592Z,2.80
2022-09-26T12:15:47.193Z,2.73
2022-09-26T12:18:17.365Z,4.23
2022-09-26T12:20:52.319Z,4.47
2022-09-26T12:23:26.367Z,2.90
2022-09-26T12:26:05.058Z,7.27
2022-09-26T12:28:43.192Z,4.23
2022-09-26T12:31:26.947Z,5.70
2022-09-26T12:34:13.372Z,5.97
2022-09-26T12:36:45.104Z,7.47
2022-09-26T12:39:39.778Z,7.57
2022-09-26T12:42:16.612Z,10.03
2022-09-26T12:44:51.964Z,5.77
2022-09-26T12:47:24.498Z,10.03
2022-09-26T12:50:04.115Z,7.63
2022-09-26T12:52:38.383Z,9.07
2022-09-26T12:55:10.046Z,13.27
2022-09-26T13:15:02.050Z,7.03
2022-09-26T13:17:51.562Z,8.70
2022-09-26T13:20:22.396Z,9.07
2022-09-26T13:26:13.942Z,5.60
2022-09-26T13:29:00.613Z,12.47
2022-09-26T13:31:35.403Z,7.97
2022-09-26T13:34:05.484Z,13.07
2022-09-26T13:36:33.459Z,8.70
2022-09-26T13:39:03.446Z,8.27
2022-09-26T13:41:35.057Z,14.37
2022-09-26T13:44:09.728Z,14.07
2022-09-26T13:46:44.041Z,16.33
2022-09-26T13:49:21.253Z,9.03
2022-09-26T13:51:51.590Z,10.17
2022-09-26T13:54:21.841Z,13.73
2022-09-26T13:56:49.689Z,13.37
2022-09-26T13:59:24.810Z,5.60
2022-09-26T14:02:10.664Z,12.70
2022-09-26T14:04:39.385Z,19.73
2022-09-26T14:07:20.124Z,15.13
2022-09-26T14:09:55.210Z,20.67
2022-09-26T14:12:33.800Z,12.63
2022-09-26T14:15:15.196Z,14.37
2022-09-26T14:18:03.253Z,16.10
2022-09-26T14:20:33.834Z,15.70
2022-09-26T14:23:01.651Z,18.90
2022-09-26T14:25:48.000Z,19.00
2022-09-26T14:28:21.887Z,17.67
2022-09-26T14:31:08.009Z,17.27
2022-09-26T14:33:35.456Z,13.37
2022-09-26T14:36:24.382Z,15.40
2022-09-26T14:38:52.202Z,12.70
2022-09-26T14:41:20.758Z,11.03
2022-09-26T14:43:48.887Z,12.83
2022-09-26T14:46:17.585Z,10.20
2022-09-26T14:48:45.593Z,9.70
2022-09-26T14:51:36.680Z,8.80
2022-09-26T14:54:06.731Z,13.03
2022-09-26T14:56:40.957Z,5.93
2022-09-26T14:59:26.682Z,10.30
2022-09-26T15:01:55.077Z,6.13
2022-09-26T15:04:23.930Z,5.40
2022-09-26T15:06:53.176Z,9.60
2022-09-26T15:09:23.397Z,10.93
2022-09-26T15:11:54.043Z,5.73
2022-09-26T15:14:25.828Z,9.27
2022-09-26T15:16:55.241Z,7.97
2022-09-26T15:19:25.823Z,10.43
2022-09-26T15:21:54.764Z,13.93
2022-09-26T15:24:24.535Z,8.33
2022-09-26T15:26:52.035Z,5.10
2022-09-26T15:29:19.319Z,6.03
2022-09-26T15:31:46.691Z,6.70
2022-09-26T15:34:15.159Z,12.57
2022-09-26T15:36:43.054Z,7.77
2022-09-26T15:39:25.211Z,8.23
2022-09-26T15:41:54.131Z,10.97
2022-09-26T15:44:25.061Z,7.03
2022-09-26T15:46:52.404Z,11.50
2022-09-26T15:49:20.473Z,7.07
2022-09-26T15:51:49.991Z,8.60
2022-09-26T15:54:22.992Z,10.83
2022-09-26T15:56:50.935Z,12.90
2022-09-26T15:59:20.732Z,6.47
2022-09-26T16:01:48.998Z,11.83
2022-09-26T16:04:20.452Z,10.97
2022-09-26T16:06:55.119Z,10.27
2022-09-26T16:09:24.033Z,9.43
2022-09-26T16:11:53.619Z,9.30
2022-09-26T16:14:27.114Z,5.00
2022-09-26T16:16:56.226Z,10.27
2022-09-26T16:19:31.227Z,4.20
2022-09-26T16:21:58.423Z,9.90
2022-09-26T16:24:30.903Z,5.50
2022-09-26T16:26:58.134Z,5.97
2022-09-26T16:29:33.458Z,5.33
2022-09-26T16:32:01.033Z,7.97
2022-09-26T16:34:29.633Z,5.33
2022-09-26T16:36:57.495Z,7.90
2022-09-26T16:39:25.755Z,6.67
2022-09-26T16:42:01.787Z,4.83
2022-09-26T16:44:35.394Z,6.97
2022-09-26T16:47:06.587Z,8.57
2022-09-26T16:49:44.967Z,6.87
2022-09-26T16:52:20.831Z,6.60
2022-09-26T16:54:48.162Z,7.83
2022-09-26T16:57:18.868Z,6.13
2022-09-26T16:59:46.154Z,7.63
2022-09-26T17:02:14.722Z,7.10
2022-09-26T17:04:43.249Z,4.13
2022-09-26T17:07:12.476Z,3.77
2022-09-26T17:09:39.803Z,4.23
2022-09-26T17:12:07.918Z,3.70
2022-09-26T17:14:40.465Z,11.90
2022-09-26T17:17:09.078Z,7.97
2022-09-26T17:19:39.109Z,3.07
2022-09-26T17:22:06.787Z,5.07
2022-09-26T17:24:49.679Z,5.50
2022-09-26T17:27:17.846Z,6.87
2022-09-26T17:29:46.246Z,3.93
2022-09-26T17:32:15.391Z,3.27
2022-09-26T17:34:50.338Z,3.33
2022-09-26T17:37:18.914Z,6.37
2022-09-26T17:39:46.343Z,4.10
2022-09-26T17:42:13.584Z,7.90
2022-09-26T17:47:23.488Z,4.20
2022-09-26T17:49:58.028Z,6.97
2022-09-26T17:52:26.704Z,6.60
2022-09-26T17:54:54.679Z,4.90
2022-09-26T17:57:21.904Z,5.53
2022-09-26T17:59:49.083Z,6.17
2022-09-26T18:02:20.897Z,8.13
2022-09-26T18:04:48.736Z,4.10
2022-09-26T18:07:29.871Z,3.33
2022-09-26T18:09:57.256Z,3.63
2022-09-26T18:12:24.956Z,3.20
2022-09-26T18:14:52.337Z,4.97
2022-09-26T18:17:19.702Z,12.43
2022-09-26T18:19:46.960Z,6.03
2022-09-26T18:22:15.954Z,7.63
2022-09-26T18:24:46.281Z,6.00
2022-09-26T18:27:14.275Z,6.53
2022-09-26T18:29:42.857Z,3.93
2022-09-26T18:32:13.213Z,4.37
2022-09-26T18:34:40.406Z,4.53
2022-09-26T18:37:07.663Z,2.83
2022-09-26T18:39:34.892Z,4.80
2022-09-26T18:42:11.209Z,6.67
2022-09-26T18:44:38.519Z,3.90
2022-09-26T18:47:11.350Z,10.13
2022-09-26T18:49:38.699Z,7.80
2022-09-26T18:52:07.082Z,5.77
2022-09-26T18:54:34.435Z,6.03
2022-09-26T18:57:01.678Z,5.90
2022-09-26T18:59:30.206Z,7.07
2022-09-26T19:01:57.868Z,4.07
2022-09-26T19:04:25.158Z,3.77
2022-09-26T19:06:54.958Z,2.67
2022-09-26T19:09:22.751Z,3.67
2022-09-26T19:11:49.982Z,6.73
2022-09-26T19:14:19.355Z,4.40
2022-09-26T19:16:49.135Z,5.93
2022-09-26T19:19:16.841Z,3.63
2022-09-26T19:21:46.492Z,6.07
2022-09-26T19:24:15.855Z,1.73
2022-09-26T19:26:43.604Z,1.90
2022-09-26T19:29:13.433Z,7.50
2022-09-26T19:31:41.002Z,1.83
2022-09-26T19:34:13.450Z,2.53
2022-09-26T19:36:40.708Z,4.40
2022-09-26T19:39:10.595Z,3.73
2022-09-26T19:41:37.812Z,4.57
2022-09-26T19:44:05.134Z,3.90
2022-09-26T19:46:32.630Z,7.23
2022-09-26T19:48:59.968Z,8.30
2022-09-26T19:51:28.972Z,3.63
2022-09-26T19:53:56.215Z,5.17
2022-09-26T19:56:23.434Z,5.00
2022-09-26T19:58:50.706Z,3.70
2022-09-26T20:01:18.632Z,4.90
2022-09-26T20:03:45.888Z,4.23
2022-09-26T20:06:13.755Z,5.67
2022-09-26T20:08:42.573Z,6.30
2022-09-26T20:11:09.795Z,4.63
2022-09-26T20:13:37.037Z,3.30
2022-09-26T20:16:04.310Z,4.73
2022-09-26T20:18:31.500Z,9.47
2022-09-26T20:20:59.220Z,5.00
2022-09-26T20:23:27.199Z,10.57
2022-09-26T20:25:56.143Z,6.00
2022-09-26T20:28:23.525Z,6.50
2022-09-26T20:30:50.986Z,3.70
2022-09-26T20:33:18.749Z,3.57
2022-09-26T20:35:47.525Z,3.57
2022-09-26T20:38:16.823Z,5.43
2022-09-26T20:40:44.086Z,3.50
2022-09-26T20:43:15.054Z,2.83
2022-09-26T20:45:42.538Z,7.57
2022-09-26T20:48:16.156Z,4.10
2022-09-26T20:50:43.419Z,10.53
2022-09-26T20:53:14.379Z,3.30
2022-09-26T20:55:44.108Z,6.53
2022-09-26T20:58:13.108Z,5.13
2022-09-26T21:00:40.750Z,4.10
2022-09-26T21:03:08.282Z,3.93
2022-09-26T21:05:35.519Z,4.13
2022-09-26T21:08:05.870Z,2.70
2022-09-26T21:10:33.893Z,6.60
2022-09-26T21:13:01.437Z,3.63
2022-09-26T21:15:31.208Z,5.73
2022-09-26T21:17:58.612Z,4.93
2022-09-26T21:20:27.028Z,4.30
2022-09-26T21:23:12.967Z,5.77
2022-09-26T21:25:40.244Z,3.10
2022-09-26T21:28:11.574Z,3.57
2022-09-26T21:30:40.180Z,1.40
2022-09-26T21:33:07.475Z,4.10
2022-09-26T21:35:34.734Z,2.60
2022-09-26T21:38:01.941Z,8.13
2022-09-26T21:40:30.485Z,2.97
2022-09-26T21:42:59.978Z,7.20
2022-09-26T21:45:27.561Z,7.47
2022-09-26T21:47:57.613Z,6.03
2022-09-26T21:50:25.974Z,4.93
2022-09-26T21:52:54.631Z,3.13
2022-09-26T21:55:23.166Z,3.20
2022-09-26T21:57:51.219Z,4.60
2022-09-26T22:07:05.495Z,2.90
2022-09-26T22:09:32.875Z,4.60
2022-09-26T22:12:00.069Z,3.27
2022-09-26T22:14:27.551Z,6.23
2022-09-26T22:16:54.804Z,2.37
2022-09-26T22:19:22.131Z,1.70
2022-09-26T22:21:49.347Z,3.73
2022-09-26T22:24:17.959Z,6.23
2022-09-26T22:26:45.154Z,4.90
2022-09-26T22:29:12.550Z,4.77
2022-09-26T22:31:39.865Z,2.10
2022-09-26T22:37:04.263Z,4.70
2022-09-26T22:39:33.259Z,3.83
2022-09-26T22:42:00.746Z,6.53
2022-09-26T22:44:27.992Z,6.07
2022-09-26T22:46:55.522Z,3.93
2022-09-26T22:49:22.718Z,9.73
2022-09-26T22:51:50.025Z,4.50
2022-09-26T22:54:17.307Z,6.23
2022-09-26T22:56:45.893Z,4.70
2022-09-26T22:59:13.221Z,6.33
2022-09-26T23:01:40.475Z,7.33
2022-09-26T23:04:07.717Z,4.97
2022-09-26T23:06:34.968Z,3.57
2022-09-26T23:09:02.408Z,5.63
2022-09-26T23:11:29.866Z,4.17
2022-09-26T23:13:58.505Z,4.43
2022-09-26T23:16:25.792Z,4.93
2022-09-26T23:18:53.155Z,6.53
2022-09-26T23:21:35.578Z,6.77
2022-09-26T23:24:21.109Z,10.23
2022-09-26T23:26:54.586Z,4.90
2022-09-26T23:29:23.202Z,7.30
2022-09-26T23:31:50.554Z,10.47
2022-09-26T23:34:18.078Z,4.87
2022-09-26T23:36:45.336Z,14.20
2022-09-26T23:39:17.673Z,8.00
2022-09-26T23:41:45.070Z,8.20
2022-09-26T23:44:12.262Z,3.73
2022-09-26T23:46:40.889Z,6.57
2022-09-26T23:49:27.575Z,7.57
2022-09-26T23:52:22.845Z,11.60
2022-09-26T23:54:56.387Z,11.77
2022-09-26T23:57:23.917Z,8.07
2022-09-26T23:59:51.189Z,13.90
